Vermillion, South Dakota
Current Conditions -  °F | °C
As of 12:55 AM on Sunday 26 Oct 2014 (Local Time) from KYKN Reporting Station
Clear Clear  
Wind Chill: 44°   Ceiling: Unl
Heat Index: 46°   Visibility: 10mi
Dew Point: 34°   Wind: 6mph
Humidity: 62%   Direction: 60°ENE
Pressure: 29.99"   Gusts: NA
Location:  42.79°N, 96.93°W
Report Text: KYKN 260555Z AUTO 06005KT 10SM CLR 08/01 A2999 RMK AO1 10160 20080 57020
Loading
Personal Weather Stations






























Interactive Weather Map
Tropical Storm Tracking
New forecast layout! Learn more

10-Day Weather Forecast

Advertisements
Track Severe Weather on mobile